createdAt,value
2023-04-03T00:01:13.480Z,2.28
2023-04-03T00:03:45.386Z,2.40
2023-04-03T00:06:16.976Z,2.95
2023-04-03T00:08:50.742Z,2.78
2023-04-03T00:11:23.074Z,2.58
2023-04-03T00:13:54.313Z,2.60
2023-04-03T00:16:25.573Z,2.55
2023-04-03T00:18:56.535Z,2.47
2023-04-03T00:21:27.418Z,2.83
2023-04-03T00:24:01.214Z,2.90
2023-04-03T00:26:32.088Z,2.60
2023-04-03T00:29:02.979Z,3.00
2023-04-03T00:31:33.838Z,4.15
2023-04-03T00:34:04.816Z,2.85
2023-04-03T00:36:35.853Z,2.70
2023-04-03T00:39:09.524Z,2.47
2023-04-03T00:41:40.459Z,2.75
2023-04-03T00:44:27.225Z,3.17
2023-04-03T00:46:58.149Z,2.80
2023-04-03T00:49:30.974Z,2.38
2023-04-03T00:52:03.122Z,3.20
2023-04-03T00:54:36.854Z,3.08
2023-04-03T00:57:09.945Z,2.70
2023-04-03T00:59:45.445Z,3.13
2023-04-03T01:02:16.447Z,3.17
2023-04-03T01:04:48.552Z,2.80
2023-04-03T01:07:22.568Z,2.75
2023-04-03T01:10:00.503Z,3.50
2023-04-03T01:12:33.981Z,2.45
2023-04-03T01:15:07.158Z,2.72
2023-04-03T01:17:41.026Z,2.72
2023-04-03T01:20:47.020Z,2.80
2023-04-03T01:23:37.037Z,2.78
2023-04-03T01:26:11.508Z,2.28
2023-04-03T01:28:42.473Z,3.22
2023-04-03T01:31:23.343Z,2.90
2023-04-03T01:33:57.269Z,2.63
2023-04-03T01:36:32.196Z,2.75
2023-04-03T01:42:07.073Z,3.10
2023-04-03T01:44:43.110Z,2.67
2023-04-03T01:47:13.996Z,3.08
2023-04-03T01:49:48.318Z,3.13
2023-04-03T01:52:19.142Z,2.53
2023-04-03T01:54:49.986Z,2.45
2023-04-03T01:57:20.870Z,2.42
2023-04-03T01:59:52.544Z,2.88
2023-04-03T02:02:23.596Z,2.40
2023-04-03T02:04:59.102Z,2.28
2023-04-03T02:07:29.917Z,2.95
2023-04-03T02:10:00.759Z,2.80
2023-04-03T02:12:31.621Z,2.78
2023-04-03T02:15:03.126Z,2.90
2023-04-03T02:17:34.102Z,3.10
2023-04-03T02:20:08.200Z,2.47
2023-04-03T02:22:39.244Z,2.47
2023-04-03T02:25:10.985Z,2.85
2023-04-03T02:27:41.769Z,3.60
2023-04-03T02:30:15.938Z,3.20
2023-04-03T02:32:46.872Z,2.67
2023-04-03T02:35:21.334Z,2.67
2023-04-03T02:37:53.058Z,3.85
2023-04-03T02:40:24.609Z,2.88
2023-04-03T02:42:55.537Z,2.40
2023-04-03T02:45:28.495Z,3.33
2023-04-03T02:47:59.404Z,3.42
2023-04-03T02:50:32.833Z,3.40
2023-04-03T02:53:03.653Z,2.58
2023-04-03T02:55:34.543Z,3.60
2023-04-03T02:58:06.184Z,2.83
2023-04-03T03:00:38.679Z,2.50
2023-04-03T03:03:09.828Z,3.95
2023-04-03T03:05:43.420Z,3.33
2023-04-03T03:08:14.206Z,3.22
2023-04-03T03:10:45.134Z,2.55
2023-04-03T03:13:15.969Z,2.63
2023-04-03T03:15:46.815Z,2.80
2023-04-03T03:18:18.339Z,2.33
2023-04-03T03:20:54.880Z,2.55
2023-04-03T03:23:27.561Z,2.97
2023-04-03T03:26:00.220Z,2.22
2023-04-03T03:28:31.481Z,2.65
2023-04-03T03:31:03.698Z,2.30
2023-04-03T03:33:36.776Z,2.30
2023-04-03T03:36:10.914Z,2.92
2023-04-03T03:38:41.888Z,2.83
2023-04-03T03:41:14.217Z,2.65
2023-04-03T03:43:48.102Z,2.05
2023-04-03T03:46:20.694Z,3.22
2023-04-03T03:48:51.589Z,3.08
2023-04-03T03:51:25.051Z,2.78
2023-04-03T03:53:56.342Z,2.60
2023-04-03T03:56:27.828Z,2.33
2023-04-03T03:58:58.773Z,2.55
2023-04-03T04:01:30.094Z,2.50
2023-04-03T04:04:01.220Z,2.92
2023-04-03T04:06:38.602Z,3.42
2023-04-03T04:09:13.941Z,3.08
2023-04-03T04:11:44.961Z,2.45
2023-04-03T04:14:17.021Z,3.25
2023-04-03T04:16:48.571Z,3.33
2023-04-03T04:19:24.436Z,2.67
2023-04-03T04:21:57.887Z,3.17
2023-04-03T04:24:29.275Z,3.28
2023-04-03T04:27:01.264Z,2.65
2023-04-03T04:29:36.532Z,3.40
2023-04-03T04:32:10.038Z,2.83
2023-04-03T04:34:41.170Z,2.78
2023-04-03T04:37:14.762Z,3.03
2023-04-03T04:39:45.704Z,2.60
2023-04-03T04:42:17.877Z,2.70
2023-04-03T04:44:50.691Z,2.58
2023-04-03T04:47:21.572Z,2.50
2023-04-03T04:49:52.529Z,2.50
2023-04-03T04:52:26.921Z,2.60
2023-04-03T04:54:58.179Z,2.78
2023-04-03T04:57:29.728Z,3.15
2023-04-03T05:00:04.365Z,2.78
2023-04-03T05:02:35.163Z,3.60
2023-04-03T05:05:06.462Z,4.25
2023-04-03T05:07:40.860Z,3.05
2023-04-03T05:10:13.104Z,2.90
2023-04-03T05:12:44.264Z,2.50
2023-04-03T05:15:15.007Z,3.03
2023-04-03T05:17:45.826Z,3.40
2023-04-03T05:20:18.241Z,2.85
2023-04-03T05:22:52.990Z,3.20
2023-04-03T05:25:23.413Z,2.53
2023-04-03T05:27:57.506Z,4.05
2023-04-03T05:30:29.076Z,3.28
2023-04-03T05:32:59.778Z,2.55
2023-04-03T05:35:42.724Z,3.45
2023-04-03T05:38:18.965Z,3.20
2023-04-03T05:40:49.535Z,3.05
2023-04-03T05:43:20.369Z,3.28
2023-04-03T05:45:52.367Z,3.08
2023-04-03T05:48:24.671Z,3.35
2023-04-03T05:50:56.888Z,3.78
2023-04-03T05:53:35.168Z,3.35
2023-04-03T05:56:07.848Z,3.25
2023-04-03T05:58:42.745Z,3.78
2023-04-03T06:01:13.547Z,3.95
2023-04-03T06:03:44.448Z,3.63
2023-04-03T06:06:17.823Z,3.80
2023-04-03T06:08:52.129Z,3.25
2023-04-03T06:11:22.800Z,3.72
2023-04-03T06:13:53.232Z,4.15
2023-04-03T06:16:23.655Z,3.20
2023-04-03T06:18:54.010Z,3.30
2023-04-03T06:21:24.517Z,3.75
2023-04-03T06:23:57.484Z,3.95
2023-04-03T06:26:28.487Z,3.42
2023-04-03T06:28:58.802Z,3.22
2023-04-03T06:31:29.289Z,3.70
2023-04-03T06:34:00.235Z,3.50
2023-04-03T06:36:31.093Z,3.90
2023-04-03T06:39:04.368Z,3.95
2023-04-03T06:41:36.032Z,3.72
2023-04-03T06:44:09.200Z,3.95
2023-04-03T06:46:39.703Z,3.90
2023-04-03T06:49:11.535Z,4.05
2023-04-03T06:51:42.066Z,4.05
2023-04-03T06:54:15.964Z,3.55
2023-04-03T06:56:46.464Z,3.65
2023-04-03T06:59:17.413Z,4.05
2023-04-03T07:01:48.669Z,4.32
2023-04-03T07:04:21.512Z,4.32
2023-04-03T07:06:52.199Z,4.50
2023-04-03T07:09:25.217Z,4.72
2023-04-03T07:11:55.608Z,4.47
2023-04-03T07:14:26.410Z,4.32
2023-04-03T07:16:56.827Z,4.60
2023-04-03T07:19:29.172Z,5.05
2023-04-03T07:21:59.520Z,4.10
2023-04-03T07:24:32.588Z,4.50
2023-04-03T07:27:03.731Z,3.95
2023-04-03T07:29:34.204Z,4.65
2023-04-03T07:32:04.932Z,4.43
2023-04-03T07:34:36.407Z,4.72
2023-04-03T07:37:07.727Z,4.88
2023-04-03T07:39:40.771Z,4.82
2023-04-03T07:42:11.338Z,4.95
2023-04-03T07:44:42.371Z,4.55
2023-04-03T07:47:14.676Z,5.40
2023-04-03T07:49:45.196Z,5.07
2023-04-03T07:52:15.890Z,5.03
2023-04-03T07:54:48.979Z,5.38
2023-04-03T07:57:19.525Z,5.57
2023-04-03T07:59:49.890Z,5.63
2023-04-03T08:02:20.208Z,6.65
2023-04-03T08:04:50.784Z,5.90
2023-04-03T08:07:22.071Z,6.15
2023-04-03T08:09:55.202Z,6.25
2023-04-03T08:12:25.794Z,5.80
2023-04-03T08:14:56.393Z,6.28
2023-04-03T08:17:26.825Z,6.43
2023-04-03T08:19:57.164Z,7.47
2023-04-03T08:22:27.638Z,7.50
2023-04-03T08:25:00.555Z,7.57
2023-04-03T08:27:31.266Z,7.43
2023-04-03T08:30:01.678Z,7.15
2023-04-03T08:32:32.118Z,7.07
2023-04-03T08:35:02.452Z,7.80
2023-04-03T08:37:33.066Z,7.85
2023-04-03T08:40:06.740Z,7.72
2023-04-03T08:42:48.866Z,8.13
2023-04-03T08:45:24.442Z,7.90
2023-04-03T08:48:03.655Z,8.13
2023-04-03T08:50:39.720Z,8.25
2023-04-03T08:53:16.160Z,8.20
2023-04-03T08:55:51.028Z,8.57
2023-04-03T08:58:25.345Z,8.20
2023-04-03T09:00:59.753Z,8.00
2023-04-03T09:03:33.676Z,8.80
2023-04-03T09:06:08.937Z,8.95
2023-04-03T09:08:44.866Z,9.00
2023-04-03T09:11:27.881Z,8.70
2023-04-03T09:14:04.139Z,8.90
2023-04-03T09:16:45.181Z,8.23
2023-04-03T09:19:23.658Z,8.98
2023-04-03T09:21:53.969Z,9.80
2023-04-03T09:24:27.026Z,8.18
2023-04-03T09:27:03.667Z,8.93
2023-04-03T09:29:34.605Z,9.20
2023-04-03T09:32:06.769Z,9.45
2023-04-03T09:34:40.609Z,9.73
2023-04-03T09:37:11.668Z,9.27
2023-04-03T09:39:54.661Z,10.18
2023-04-03T09:42:29.660Z,10.25
2023-04-03T09:45:01.358Z,10.00
2023-04-03T09:47:34.952Z,9.60
2023-04-03T09:50:24.419Z,9.10
2023-04-03T09:52:55.659Z,9.88
2023-04-03T09:55:28.496Z,11.07
2023-04-03T09:58:03.996Z,9.80
2023-04-03T10:00:39.313Z,8.75
2023-04-03T10:03:26.376Z,10.00
2023-04-03T10:05:56.707Z,9.13
2023-04-03T10:08:30.022Z,8.90
2023-04-03T10:11:24.327Z,8.98
2023-04-03T10:14:00.824Z,9.32
2023-04-03T10:16:39.053Z,8.27
2023-04-03T10:19:35.415Z,8.75
2023-04-03T10:22:15.718Z,8.48
2023-04-03T10:24:58.564Z,8.07
2023-04-03T10:27:51.789Z,8.60
2023-04-03T10:30:35.492Z,8.20
2023-04-03T10:33:29.002Z,8.75
2023-04-03T10:36:12.926Z,8.63
2023-04-03T10:38:52.280Z,8.85
2023-04-03T10:41:32.192Z,8.40
2023-04-03T10:44:15.262Z,8.40
2023-04-03T10:46:51.633Z,8.35
2023-04-03T10:49:32.786Z,8.13
2023-04-03T10:52:10.809Z,8.77
2023-04-03T10:54:43.489Z,9.10
2023-04-03T10:57:15.375Z,8.43
2023-04-03T10:59:49.841Z,8.35
2023-04-03T11:02:31.854Z,7.97
2023-04-03T11:05:10.463Z,8.77
2023-04-03T11:07:44.884Z,8.00
2023-04-03T11:10:20.643Z,8.13
2023-04-03T11:12:56.413Z,8.50
2023-04-03T11:15:28.483Z,7.97
2023-04-03T11:18:08.181Z,7.97
2023-04-03T11:20:41.104Z,7.60
2023-04-03T11:23:23.518Z,8.07
2023-04-03T11:25:57.112Z,7.47
2023-04-03T11:28:27.640Z,7.78
2023-04-03T11:31:06.831Z,7.50
2023-04-03T11:33:49.599Z,7.90
2023-04-03T11:36:33.147Z,8.25
2023-04-03T11:39:12.742Z,7.53
2023-04-03T11:41:43.085Z,7.53
2023-04-03T11:44:37.606Z,7.50
2023-04-03T11:47:09.316Z,7.05
2023-04-03T11:50:06.619Z,7.93
2023-04-03T11:53:02.267Z,7.93
2023-04-03T11:55:58.309Z,7.50
2023-04-03T11:58:31.116Z,7.53
2023-04-03T12:01:13.741Z,7.32
2023-04-03T12:04:09.961Z,7.40
2023-04-03T12:07:16.595Z,6.93
2023-04-03T12:10:31.737Z,6.85
2023-04-03T12:13:05.552Z,7.68
2023-04-03T12:16:01.051Z,7.03
2023-04-03T12:18:59.805Z,6.43
2023-04-03T12:22:00.576Z,7.07
2023-04-03T12:24:33.777Z,6.40
2023-04-03T12:27:35.434Z,6.30
2023-04-03T12:30:16.465Z,6.55
2023-04-03T12:33:13.243Z,7.00
2023-04-03T12:35:52.952Z,7.47
2023-04-03T12:38:45.563Z,6.65
2023-04-03T12:41:26.815Z,7.00
2023-04-03T12:44:21.268Z,6.93
2023-04-03T12:46:53.673Z,6.45
2023-04-03T12:49:39.758Z,6.95
2023-04-03T12:52:23.660Z,6.72
2023-04-03T12:54:55.029Z,6.95
2023-04-03T12:57:28.766Z,7.05
2023-04-03T13:00:02.016Z,7.28
2023-04-03T13:02:35.751Z,6.72
2023-04-03T13:05:11.459Z,6.43
2023-04-03T13:07:44.662Z,6.50
2023-04-03T13:10:20.005Z,6.93
2023-04-03T13:12:52.913Z,6.40
2023-04-03T13:15:28.730Z,6.55
2023-04-03T13:17:59.713Z,6.72
2023-04-03T13:20:32.864Z,6.90
2023-04-03T13:23:06.518Z,6.68
2023-04-03T13:25:40.333Z,6.57
2023-04-03T13:28:14.768Z,7.30
2023-04-03T13:31:02.966Z,6.65
2023-04-03T13:33:38.907Z,6.65
2023-04-03T13:36:14.905Z,7.25
2023-04-03T13:38:45.339Z,6.13
2023-04-03T13:41:30.383Z,6.85
2023-04-03T13:44:10.510Z,7.35
2023-04-03T13:46:45.608Z,7.07
2023-04-03T13:49:23.839Z,7.20
2023-04-03T13:52:06.068Z,6.50
2023-04-03T13:54:41.454Z,6.65
2023-04-03T13:57:18.429Z,6.57
2023-04-03T14:02:26.206Z,6.57
2023-04-03T14:05:02.389Z,6.18
2023-04-03T14:07:34.542Z,6.65
2023-04-03T14:10:04.918Z,5.97
2023-04-03T14:12:40.237Z,6.45
2023-04-03T14:15:20.878Z,6.72
2023-04-03T14:17:55.739Z,6.82
2023-04-03T14:20:29.905Z,6.80
2023-04-03T14:23:00.434Z,7.88
2023-04-03T14:25:30.878Z,6.18
2023-04-03T14:28:01.622Z,6.25
2023-04-03T14:30:34.489Z,6.55
2023-04-03T14:33:07.559Z,6.28
2023-04-03T14:35:38.019Z,6.93
2023-04-03T14:38:16.391Z,6.10
2023-04-03T14:40:46.765Z,7.00
2023-04-03T14:43:17.560Z,6.00
2023-04-03T14:45:48.161Z,6.20
2023-04-03T14:48:24.928Z,6.63
2023-04-03T14:51:05.119Z,6.90
2023-04-03T14:53:39.113Z,6.40
2023-04-03T14:56:15.826Z,6.53
2023-04-03T14:58:50.459Z,6.43
2023-04-03T15:01:22.508Z,6.45
2023-04-03T15:03:55.661Z,6.38
2023-04-03T15:06:26.246Z,6.85
2023-04-03T15:08:56.722Z,5.15
2023-04-03T15:11:27.904Z,4.45
2023-04-03T15:13:58.667Z,5.53
2023-04-03T15:16:29.634Z,5.70
2023-04-03T15:19:02.854Z,5.43
2023-04-03T15:21:33.272Z,6.07
2023-04-03T15:24:03.652Z,5.72
2023-04-03T15:26:34.670Z,5.47
2023-04-03T15:29:05.120Z,5.97
2023-04-03T15:31:35.670Z,5.57
2023-04-03T15:34:08.759Z,5.03
2023-04-03T15:36:39.187Z,5.15
2023-04-03T15:39:10.004Z,4.68
2023-04-03T15:41:41.194Z,4.95
2023-04-03T15:44:13.321Z,4.55
2023-04-03T15:46:43.707Z,4.90
2023-04-03T15:49:16.866Z,4.68
2023-04-03T15:51:47.264Z,4.30
2023-04-03T15:54:17.658Z,4.60
2023-04-03T15:56:48.256Z,4.43
2023-04-03T15:59:18.775Z,4.18
2023-04-03T16:01:49.471Z,4.35
2023-04-03T16:04:23.577Z,3.80
2023-04-03T16:06:54.633Z,4.38
2023-04-03T16:09:24.983Z,4.50
2023-04-03T16:11:55.294Z,4.43
2023-04-03T16:14:25.601Z,4.40
2023-04-03T16:16:55.991Z,4.05
2023-04-03T16:19:29.100Z,4.32
2023-04-03T16:21:59.811Z,4.28
2023-04-03T16:24:30.205Z,4.35
2023-04-03T16:27:00.574Z,4.85
2023-04-03T16:29:30.936Z,4.18
2023-04-03T16:32:02.366Z,4.22
2023-04-03T16:34:35.393Z,4.32
2023-04-03T16:37:05.894Z,4.70
2023-04-03T16:39:36.333Z,4.28
2023-04-03T16:42:06.794Z,4.60
2023-04-03T16:44:37.194Z,4.78
2023-04-03T16:47:08.909Z,4.82
2023-04-03T16:49:42.114Z,4.70
2023-04-03T16:52:12.627Z,4.43
2023-04-03T16:54:43.226Z,4.20
2023-04-03T16:57:13.537Z,4.43
2023-04-03T16:59:43.848Z,4.82
2023-04-03T17:02:14.146Z,5.55
2023-04-03T17:04:47.057Z,5.07
2023-04-03T17:07:17.314Z,4.88
2023-04-03T17:09:47.638Z,4.35
2023-04-03T17:12:18.129Z,4.15
2023-04-03T17:14:48.499Z,4.88
2023-04-03T17:17:19.439Z,4.65
2023-04-03T17:19:54.186Z,5.55
2023-04-03T17:22:24.538Z,5.38
2023-04-03T17:24:54.914Z,6.53
2023-04-03T17:27:25.584Z,5.95
2023-04-03T17:29:56.546Z,6.20
2023-04-03T17:32:27.522Z,6.10
2023-04-03T17:35:00.533Z,6.63
2023-04-03T17:37:30.825Z,6.90
2023-04-03T17:40:01.316Z,6.85
2023-04-03T17:42:32.681Z,7.88
2023-04-03T17:45:03.491Z,6.78
2023-04-03T17:47:33.821Z,7.07
2023-04-03T17:50:07.473Z,7.25
2023-04-03T17:52:37.921Z,8.73
2023-04-03T17:55:09.232Z,8.32
2023-04-03T17:57:39.562Z,7.95
2023-04-03T18:00:11.836Z,8.65
2023-04-03T18:02:44.989Z,9.32
2023-04-03T18:05:18.081Z,8.68
2023-04-03T18:07:49.669Z,9.20
2023-04-03T18:10:20.097Z,8.75
2023-04-03T18:12:50.500Z,9.55
2023-04-03T18:15:21.112Z,9.70
2023-04-03T18:17:56.773Z,9.55
2023-04-03T18:20:29.900Z,9.57
2023-04-03T18:23:00.233Z,9.45
2023-04-03T18:25:30.763Z,9.77
2023-04-03T18:28:06.463Z,9.77
2023-04-03T18:30:39.946Z,9.88
2023-04-03T18:33:10.570Z,9.85
2023-04-03T18:35:43.883Z,9.60
2023-04-03T18:38:14.678Z,9.65
2023-04-03T18:40:47.543Z,10.07
2023-04-03T18:43:18.079Z,10.15
2023-04-03T18:45:49.992Z,10.43
2023-04-03T18:48:21.450Z,10.20
2023-04-03T18:50:55.715Z,10.10
2023-04-03T18:53:26.130Z,10.38
2023-04-03T18:55:56.597Z,10.05
2023-04-03T18:58:26.854Z,10.23
2023-04-03T19:00:57.275Z,9.80
2023-04-03T19:03:27.797Z,10.00
2023-04-03T19:06:00.939Z,9.52
2023-04-03T19:08:31.451Z,9.90
2023-04-03T19:11:01.849Z,10.80
2023-04-03T19:13:32.758Z,11.10
2023-04-03T19:16:03.326Z,10.75
2023-04-03T19:18:33.658Z,10.70
2023-04-03T19:21:07.039Z,10.15
2023-04-03T19:23:37.470Z,10.98
2023-04-03T19:26:11.304Z,10.75
2023-04-03T19:28:42.546Z,11.25
2023-04-03T19:31:17.206Z,10.80
2023-04-03T19:33:48.717Z,11.30
2023-04-03T19:36:22.535Z,11.43
2023-04-03T19:38:53.430Z,12.07
2023-04-03T19:41:27.621Z,12.52
2023-04-03T19:43:59.189Z,12.50
2023-04-03T19:46:32.154Z,12.77
2023-04-03T19:49:03.157Z,12.65
2023-04-03T19:51:36.609Z,12.32
2023-04-03T19:54:07.582Z,13.70
2023-04-03T19:56:38.421Z,13.10
2023-04-03T19:59:09.335Z,13.35
2023-04-03T20:01:40.781Z,13.55
2023-04-03T20:04:12.037Z,13.73
2023-04-03T20:06:45.546Z,13.30
2023-04-03T20:09:18.478Z,12.73
2023-04-03T20:11:51.467Z,13.30
2023-04-03T20:14:24.283Z,13.23
2023-04-03T20:16:55.223Z,13.27
2023-04-03T20:19:29.314Z,13.77
2023-04-03T20:22:03.593Z,12.85
2023-04-03T20:24:34.880Z,13.27
2023-04-03T20:27:05.872Z,12.70
2023-04-03T20:29:39.770Z,13.45
2023-04-03T20:32:12.259Z,12.77
2023-04-03T20:34:44.318Z,11.77
2023-04-03T20:37:20.375Z,12.82
2023-04-03T20:39:51.390Z,12.73
2023-04-03T20:42:22.206Z,12.52
2023-04-03T20:44:53.070Z,11.52
2023-04-03T20:47:24.288Z,12.18
2023-04-03T20:49:56.020Z,12.02
2023-04-03T20:52:29.449Z,12.02
2023-04-03T20:55:00.553Z,12.35
2023-04-03T20:57:32.009Z,12.82
2023-04-03T21:00:04.875Z,12.88
2023-04-03T21:02:36.325Z,12.50
2023-04-03T21:05:07.958Z,13.57
2023-04-03T21:08:10.100Z,13.50
2023-04-03T21:11:11.188Z,13.15
2023-04-03T21:14:12.987Z,12.77
2023-04-03T21:16:43.218Z,12.90
2023-04-03T21:19:17.070Z,12.50
2023-04-03T21:21:49.356Z,12.02
2023-04-03T21:24:21.045Z,12.30
2023-04-03T21:26:52.920Z,11.95
2023-04-03T21:29:23.855Z,12.43
2023-04-03T21:31:57.234Z,12.20
2023-04-03T21:34:32.321Z,11.65
2023-04-03T21:37:05.968Z,12.65
2023-04-03T21:39:37.470Z,11.90
2023-04-03T21:42:08.307Z,10.82
2023-04-03T21:44:39.129Z,11.63
2023-04-03T21:47:09.977Z,11.82
2023-04-03T21:49:43.692Z,11.77
2023-04-03T21:52:14.598Z,12.38
2023-04-03T21:54:45.460Z,11.10
2023-04-03T21:57:16.878Z,11.02
2023-04-03T21:59:47.427Z,10.88
2023-04-03T22:02:18.285Z,10.18
2023-04-03T22:04:52.220Z,9.75
2023-04-03T22:07:23.093Z,10.57
2023-04-03T22:09:53.964Z,10.88
2023-04-03T22:12:24.777Z,10.20
2023-04-03T22:14:55.870Z,10.00
2023-04-03T22:17:26.883Z,10.63
2023-04-03T22:20:00.375Z,10.57
2023-04-03T22:22:31.183Z,10.30
2023-04-03T22:25:02.188Z,9.75
2023-04-03T22:27:33.331Z,9.88
2023-04-03T22:30:04.755Z,9.20
2023-04-03T22:32:35.639Z,10.25
2023-04-03T22:35:10.287Z,9.52
2023-04-03T22:37:42.102Z,9.73
2023-04-03T22:40:14.162Z,9.73
2023-04-03T22:42:46.277Z,10.18
2023-04-03T22:45:17.252Z,9.88
2023-04-03T22:47:48.035Z,9.48
2023-04-03T22:50:21.468Z,8.93
2023-04-03T22:52:52.251Z,9.20
2023-04-03T22:55:24.791Z,9.18
2023-04-03T22:57:55.639Z,8.77
2023-04-03T23:00:28.135Z,8.68
2023-04-03T23:02:58.981Z,8.35
2023-04-03T23:05:32.745Z,7.65
2023-04-03T23:08:03.540Z,8.98
2023-04-03T23:10:34.331Z,7.63
2023-04-03T23:13:05.207Z,7.88
2023-04-03T23:15:36.114Z,8.20
2023-04-03T23:18:07.276Z,7.40
2023-04-03T23:20:40.992Z,6.85
2023-04-03T23:23:12.365Z,7.20
2023-04-03T23:25:43.201Z,6.95
2023-04-03T23:28:14.069Z,6.75
2023-04-03T23:30:45.851Z,6.45
2023-04-03T23:33:16.939Z,5.78
2023-04-03T23:35:52.367Z,6.45
2023-04-03T23:38:23.406Z,6.40
2023-04-03T23:40:54.314Z,6.10
2023-04-03T23:43:25.100Z,6.18
2023-04-03T23:45:56.277Z,6.10
2023-04-03T23:48:27.137Z,5.63
2023-04-03T23:51:00.503Z,5.57
2023-04-03T23:53:31.407Z,5.22
2023-04-03T23:56:02.465Z,5.32
2023-04-03T23:58:33.319Z,4.75
